createdAt,value
2019-05-07T00:04:42.928Z,7.2
2019-05-07T00:21:18.857Z,7.2
2019-05-07T00:37:55.219Z,7.2
2019-05-07T00:54:32.491Z,6.9
2019-05-07T01:11:07.456Z,6.9
2019-05-07T01:27:43.492Z,6.6
2019-05-07T01:44:21.987Z,6.6
2019-05-07T02:00:55.496Z,6.6
2019-05-07T02:17:32.219Z,6.2
2019-05-07T02:34:06.990Z,5.9
2019-05-07T02:50:43.671Z,5.9
2019-05-07T03:07:17.981Z,5.9
2019-05-07T03:23:53.984Z,6.2
2019-05-07T03:40:29.154Z,5.9
2019-05-07T03:57:10.699Z,5.9
2019-05-07T04:13:43.719Z,6.2
2019-05-07T04:30:16.248Z,6.6
2019-05-07T04:46:53.311Z,6.9
2019-05-07T05:03:28.629Z,6.9
2019-05-07T05:20:05.093Z,7.2
2019-05-07T05:36:42.451Z,7.5
2019-05-07T05:53:18.097Z,7.8
2019-05-07T06:09:55.591Z,8.2
2019-05-07T06:23:14.002Z,8.8
2019-05-07T06:39:52.929Z,9.1
2019-05-07T06:56:32.516Z,9.4
2019-05-07T07:13:11.947Z,10.1
2019-05-07T07:29:48.056Z,10.4
2019-05-07T07:43:07.559Z,11.0
2019-05-07T07:53:07.264Z,10.7
2019-05-07T08:03:07.040Z,11.4
2019-05-07T08:16:30.189Z,12.0
2019-05-07T08:33:09.747Z,12.3
2019-05-07T08:49:48.064Z,12.0
2019-05-07T09:06:28.523Z,11.7
2019-05-07T09:16:28.569Z,12.0
2019-05-07T09:26:28.887Z,11.4
2019-05-07T09:43:08.520Z,11.7
2019-05-07T09:46:28.583Z,12.3
2019-05-07T09:59:49.296Z,13.0
2019-05-07T10:13:12.214Z,13.3
2019-05-07T10:29:53.011Z,12.6
2019-05-07T10:36:32.182Z,13.3
2019-05-07T10:49:53.579Z,13.9
2019-05-07T11:06:35.597Z,13.9
2019-05-07T11:16:36.671Z,13.3
2019-05-07T11:33:17.962Z,13.3
2019-05-07T11:49:59.519Z,13.6
2019-05-07T12:06:41.541Z,14.2
2019-05-07T12:23:23.749Z,14.2
2019-05-07T12:40:05.982Z,14.2
2019-05-07T12:46:47.472Z,15.2
2019-05-07T12:56:59.901Z,14.6
2019-05-07T13:13:32.014Z,14.2
2019-05-07T13:26:52.892Z,13.6
2019-05-07T13:40:14.115Z,13.6
2019-05-07T13:50:15.295Z,14.2
2019-05-07T14:06:57.609Z,14.2
2019-05-07T14:23:39.543Z,13.9
2019-05-07T14:40:22.383Z,13.6
2019-05-07T14:47:02.395Z,13.0
2019-05-07T14:53:42.143Z,12.0
2019-05-07T15:00:22.560Z,11.4
2019-05-07T15:17:02.322Z,11.0
2019-05-07T15:30:21.918Z,11.7
2019-05-07T15:43:45.545Z,12.3
2019-05-07T16:00:22.866Z,12.3
2019-05-07T16:17:03.287Z,12.3
2019-05-07T16:33:43.973Z,13.0
2019-05-07T16:37:07.340Z,13.6
2019-05-07T16:53:46.260Z,14.2
2019-05-07T17:07:08.316Z,14.9
2019-05-07T17:23:51.913Z,14.2
2019-05-07T17:30:32.070Z,13.6
2019-05-07T17:37:12.673Z,13.0
